createdAt,value
2022-07-30T00:02:00.167Z,2.58
2022-07-30T00:04:34.545Z,2.55
2022-07-30T00:07:07.532Z,2.80
2022-07-30T00:09:40.556Z,2.83
2022-07-30T00:12:13.610Z,2.97
2022-07-30T00:14:46.600Z,2.50
2022-07-30T00:17:19.724Z,2.47
2022-07-30T00:19:53.960Z,2.42
2022-07-30T00:22:29.220Z,2.65
2022-07-30T00:25:02.048Z,2.58
2022-07-30T00:27:35.240Z,2.60
2022-07-30T00:30:09.273Z,2.22
2022-07-30T00:32:42.361Z,2.60
2022-07-30T00:35:16.812Z,2.45
2022-07-30T00:37:51.260Z,2.38
2022-07-30T00:40:25.882Z,2.50
2022-07-30T00:42:58.889Z,2.45
2022-07-30T00:45:31.840Z,2.47
2022-07-30T00:48:05.397Z,2.33
2022-07-30T00:50:39.882Z,2.35
2022-07-30T00:53:12.840Z,2.30
2022-07-30T00:55:45.848Z,2.53
2022-07-30T00:58:18.854Z,2.28
2022-07-30T01:00:53.947Z,2.72
2022-07-30T01:03:27.088Z,2.75
2022-07-30T01:06:01.356Z,2.60
2022-07-30T01:08:34.376Z,2.63
2022-07-30T01:11:07.402Z,2.75
2022-07-30T01:13:40.491Z,2.50
2022-07-30T01:16:14.961Z,2.55
2022-07-30T01:19:05.808Z,3.28
2022-07-30T01:21:45.043Z,3.05
2022-07-30T01:24:27.820Z,3.15
2022-07-30T01:27:03.043Z,2.25
2022-07-30T01:29:40.648Z,3.20
2022-07-30T01:32:15.627Z,2.50
2022-07-30T01:34:50.389Z,2.65
2022-07-30T01:37:24.499Z,2.03
2022-07-30T01:39:58.078Z,2.47
2022-07-30T01:42:34.078Z,2.80
2022-07-30T01:45:08.988Z,2.40
2022-07-30T01:47:44.172Z,2.60
2022-07-30T01:50:17.952Z,2.33
2022-07-30T01:52:55.081Z,2.33
2022-07-30T01:55:31.622Z,2.30
2022-07-30T01:58:07.504Z,2.60
2022-07-30T02:00:44.076Z,2.45
2022-07-30T02:03:18.378Z,2.60
2022-07-30T02:05:56.986Z,2.30
2022-07-30T02:08:40.036Z,2.60
2022-07-30T02:11:36.871Z,2.40
2022-07-30T02:14:18.531Z,2.30
2022-07-30T02:16:56.158Z,2.65
2022-07-30T02:19:34.881Z,2.00
2022-07-30T02:22:12.289Z,2.30
2022-07-30T02:24:46.197Z,2.20
2022-07-30T02:27:23.480Z,2.10
2022-07-30T02:30:01.538Z,2.70
2022-07-30T02:32:37.298Z,2.33
2022-07-30T02:35:16.743Z,2.10
2022-07-30T02:37:52.371Z,2.50
2022-07-30T02:40:27.255Z,2.40
2022-07-30T02:43:01.779Z,2.55
2022-07-30T02:45:38.064Z,2.20
2022-07-30T02:48:12.721Z,2.22
2022-07-30T02:51:08.301Z,2.30
2022-07-30T02:53:42.178Z,1.73
2022-07-30T02:56:16.881Z,2.08
2022-07-30T02:58:51.045Z,2.10
2022-07-30T03:01:26.348Z,2.20
2022-07-30T03:03:59.992Z,3.42
2022-07-30T03:06:52.657Z,2.35
2022-07-30T03:09:51.477Z,2.30
2022-07-30T03:12:27.401Z,2.22
2022-07-30T03:15:01.492Z,2.15
2022-07-30T03:17:39.595Z,2.05
2022-07-30T03:20:16.508Z,2.40
2022-07-30T03:22:54.010Z,2.67
2022-07-30T03:25:28.210Z,2.30
2022-07-30T03:28:03.817Z,2.40
2022-07-30T03:30:37.324Z,3.28
2022-07-30T03:33:13.212Z,2.45
2022-07-30T03:35:49.297Z,2.47
2022-07-30T03:38:23.962Z,2.38
2022-07-30T03:40:57.494Z,2.80
2022-07-30T03:43:33.255Z,2.40
2022-07-30T03:46:08.633Z,2.38
2022-07-30T03:48:43.816Z,3.00
2022-07-30T03:51:17.907Z,2.63
2022-07-30T03:53:52.415Z,2.13
2022-07-30T03:56:25.985Z,2.55
2022-07-30T03:58:58.996Z,2.40
2022-07-30T04:01:32.350Z,2.10
2022-07-30T04:04:08.144Z,2.60
2022-07-30T04:06:42.928Z,2.13
2022-07-30T04:09:15.911Z,2.30
2022-07-30T04:11:48.981Z,2.10
2022-07-30T04:14:21.871Z,2.80
2022-07-30T04:17:01.135Z,2.25
2022-07-30T04:19:37.708Z,2.40
2022-07-30T04:22:14.420Z,2.17
2022-07-30T04:24:49.236Z,2.10
2022-07-30T04:27:22.928Z,2.10
2022-07-30T04:29:56.445Z,2.20
2022-07-30T04:32:29.680Z,2.33
2022-07-30T04:35:04.301Z,2.30
2022-07-30T04:37:37.456Z,2.88
2022-07-30T04:40:11.876Z,2.22
2022-07-30T04:42:44.940Z,2.28
2022-07-30T04:45:20.100Z,2.47
2022-07-30T04:47:54.233Z,2.45
2022-07-30T04:50:30.830Z,2.47
2022-07-30T04:53:04.553Z,2.10
2022-07-30T04:55:42.948Z,2.10
2022-07-30T04:58:19.762Z,1.90
2022-07-30T05:00:55.313Z,2.40
2022-07-30T05:03:30.007Z,2.35
2022-07-30T05:06:06.206Z,2.10
2022-07-30T05:08:40.129Z,2.17
2022-07-30T05:11:13.352Z,2.00
2022-07-30T05:13:48.451Z,2.17
2022-07-30T05:16:21.345Z,2.17
2022-07-30T05:18:54.547Z,2.10
2022-07-30T05:21:29.035Z,2.13
2022-07-30T05:24:03.307Z,1.92
2022-07-30T05:26:36.286Z,2.00
2022-07-30T05:29:09.368Z,2.20
2022-07-30T05:31:51.513Z,2.20
2022-07-30T05:34:25.115Z,1.85
2022-07-30T05:36:59.787Z,2.72
2022-07-30T05:39:33.340Z,2.28
2022-07-30T05:42:06.382Z,1.80
2022-07-30T05:44:39.564Z,1.85
2022-07-30T05:47:12.513Z,2.40
2022-07-30T05:49:47.355Z,1.88
2022-07-30T05:52:22.333Z,2.92
2022-07-30T05:54:55.360Z,1.75
2022-07-30T05:57:28.320Z,2.35
2022-07-30T06:00:02.120Z,1.98
2022-07-30T06:02:34.963Z,1.90
2022-07-30T06:05:09.397Z,2.28
2022-07-30T06:07:43.632Z,2.20
2022-07-30T06:10:16.779Z,2.58
2022-07-30T06:12:49.668Z,2.25
2022-07-30T06:15:26.365Z,2.25
2022-07-30T06:18:02.196Z,1.85
2022-07-30T06:20:35.843Z,2.10
2022-07-30T06:23:10.174Z,2.38
2022-07-30T06:25:43.238Z,1.90
2022-07-30T06:28:36.310Z,2.25
2022-07-30T06:31:15.637Z,2.03
2022-07-30T06:33:48.650Z,2.25
2022-07-30T06:36:21.831Z,2.20
2022-07-30T06:38:56.231Z,1.92
2022-07-30T06:41:29.340Z,2.47
2022-07-30T06:44:02.184Z,2.00
2022-07-30T06:46:39.004Z,2.00
2022-07-30T06:49:12.142Z,2.20
2022-07-30T06:51:54.140Z,2.03
2022-07-30T06:54:29.021Z,2.30
2022-07-30T06:57:02.355Z,1.73
2022-07-30T06:59:56.982Z,2.70
2022-07-30T07:02:28.702Z,2.42
2022-07-30T07:05:01.928Z,2.05
2022-07-30T07:07:41.700Z,2.42
2022-07-30T07:10:16.454Z,2.35
2022-07-30T07:12:54.568Z,2.03
2022-07-30T07:15:36.265Z,2.70
2022-07-30T07:18:11.192Z,2.28
2022-07-30T07:20:46.582Z,2.53
2022-07-30T07:23:20.062Z,6.55
2022-07-30T07:25:54.950Z,3.97
2022-07-30T07:28:33.507Z,2.53
2022-07-30T07:31:06.852Z,2.30
2022-07-30T07:33:40.708Z,2.13
2022-07-30T07:36:13.684Z,2.13
2022-07-30T07:38:46.807Z,2.33
2022-07-30T07:41:21.071Z,2.40
2022-07-30T07:43:54.241Z,2.00
2022-07-30T07:46:33.694Z,2.08
2022-07-30T07:49:07.634Z,2.22
2022-07-30T07:51:47.309Z,2.53
2022-07-30T07:54:23.081Z,2.28
2022-07-30T07:56:57.811Z,2.47
2022-07-30T07:59:36.521Z,2.05
2022-07-30T08:02:13.722Z,2.40
2022-07-30T08:04:46.979Z,2.58
2022-07-30T08:07:20.034Z,2.90
2022-07-30T08:09:53.039Z,2.35
2022-07-30T08:12:28.311Z,2.70
2022-07-30T08:15:01.559Z,3.47
2022-07-30T08:17:34.520Z,3.67
2022-07-30T08:20:08.727Z,2.67
2022-07-30T08:22:42.168Z,2.40
2022-07-30T08:25:22.586Z,2.70
2022-07-30T08:28:00.721Z,2.40
2022-07-30T08:33:11.879Z,2.30
2022-07-30T08:35:48.546Z,4.22
2022-07-30T08:38:27.952Z,2.75
2022-07-30T08:41:01.316Z,1.83
2022-07-30T08:43:37.179Z,2.17
2022-07-30T08:46:13.711Z,2.30
2022-07-30T08:48:48.102Z,2.08
2022-07-30T08:51:21.475Z,2.35
2022-07-30T08:53:56.496Z,2.40
2022-07-30T08:56:29.802Z,2.70
2022-07-30T08:59:05.562Z,2.42
2022-07-30T09:01:38.851Z,2.60
2022-07-30T09:04:11.845Z,1.90
2022-07-30T09:06:45.955Z,2.40
2022-07-30T09:09:20.148Z,2.25
2022-07-30T09:11:53.185Z,1.70
2022-07-30T09:14:30.737Z,1.90
2022-07-30T09:17:04.426Z,1.95
2022-07-30T09:19:37.703Z,2.30
2022-07-30T09:22:11.332Z,2.63
2022-07-30T09:24:46.858Z,2.35
2022-07-30T09:27:19.823Z,2.47
2022-07-30T09:30:00.490Z,2.58
2022-07-30T09:32:49.126Z,2.03
2022-07-30T09:35:23.975Z,2.78
2022-07-30T09:38:05.984Z,2.40
2022-07-30T09:40:39.115Z,2.90
2022-07-30T09:43:15.978Z,2.30
2022-07-30T09:45:57.828Z,1.98
2022-07-30T09:48:30.968Z,2.15
2022-07-30T09:51:03.964Z,1.95
2022-07-30T09:53:37.687Z,2.67
2022-07-30T09:56:26.032Z,2.10
2022-07-30T09:58:59.339Z,2.17
2022-07-30T10:01:54.714Z,2.20
2022-07-30T10:04:34.383Z,2.50
2022-07-30T10:07:25.364Z,2.38
2022-07-30T10:10:01.295Z,2.33
2022-07-30T10:12:34.998Z,2.55
2022-07-30T10:15:13.620Z,2.00
2022-07-30T10:17:48.544Z,2.13
2022-07-30T10:20:22.695Z,2.83
2022-07-30T10:22:57.754Z,2.40
2022-07-30T10:25:35.342Z,2.15
2022-07-30T10:28:13.274Z,2.58
2022-07-30T10:30:50.013Z,3.17
2022-07-30T10:33:36.395Z,2.20
2022-07-30T10:36:14.232Z,2.55
2022-07-30T10:38:52.551Z,2.25
2022-07-30T10:45:08.306Z,2.40
2022-07-30T10:47:52.832Z,2.50
2022-07-30T10:50:29.028Z,1.98
2022-07-30T10:53:02.633Z,2.00
2022-07-30T10:55:38.417Z,2.08
2022-07-30T10:58:15.572Z,2.25
2022-07-30T11:01:06.461Z,2.50
2022-07-30T11:04:20.441Z,2.30
2022-07-30T11:07:31.537Z,2.50
2022-07-30T11:10:09.513Z,2.47
2022-07-30T11:12:57.027Z,2.23
2022-07-30T11:15:55.793Z,2.50
2022-07-30T11:21:20.642Z,2.22
2022-07-30T11:23:56.848Z,2.22
2022-07-30T11:26:51.349Z,2.30
2022-07-30T11:29:50.772Z,2.33
2022-07-30T11:32:26.564Z,2.08
2022-07-30T11:35:17.408Z,2.28
2022-07-30T11:38:02.021Z,2.13
2022-07-30T11:40:39.891Z,3.28
2022-07-30T11:43:35.261Z,2.70
2022-07-30T11:46:12.342Z,2.30
2022-07-30T11:48:58.207Z,2.40
2022-07-30T11:51:41.091Z,2.28
2022-07-30T11:54:14.723Z,3.67
2022-07-30T11:56:53.933Z,2.33
2022-07-30T11:59:27.081Z,2.13
2022-07-30T12:02:02.170Z,2.90
2022-07-30T12:04:44.361Z,2.38
2022-07-30T12:07:23.401Z,1.88
2022-07-30T12:10:13.313Z,2.60
2022-07-30T12:12:50.503Z,2.20
2022-07-30T12:15:31.660Z,2.60
2022-07-30T12:18:25.886Z,3.05
2022-07-30T12:20:59.701Z,2.88
2022-07-30T12:23:33.017Z,2.53
2022-07-30T12:26:06.619Z,2.40
2022-07-30T12:28:42.283Z,2.63
2022-07-30T12:31:16.797Z,2.47
2022-07-30T12:33:49.738Z,2.50
2022-07-30T12:36:27.667Z,2.72
2022-07-30T12:39:01.032Z,2.60
2022-07-30T12:41:44.786Z,2.58
2022-07-30T12:44:40.451Z,2.55
2022-07-30T12:47:21.894Z,2.85
2022-07-30T12:49:56.425Z,2.65
2022-07-30T12:52:31.886Z,2.47
2022-07-30T12:55:08.635Z,2.42
2022-07-30T12:58:02.931Z,3.53
2022-07-30T13:00:52.056Z,3.30
2022-07-30T13:03:27.970Z,2.75
2022-07-30T13:06:02.061Z,2.60
2022-07-30T13:08:50.121Z,2.22
2022-07-30T13:11:25.787Z,2.78
2022-07-30T13:13:58.904Z,2.67
2022-07-30T13:16:34.899Z,2.85
2022-07-30T13:19:09.093Z,5.03
2022-07-30T13:21:49.599Z,3.13
2022-07-30T13:24:23.873Z,2.95
2022-07-30T13:26:57.501Z,2.88
2022-07-30T13:29:30.973Z,2.83
2022-07-30T13:32:06.587Z,5.15
2022-07-30T13:34:41.566Z,3.28
2022-07-30T13:37:14.502Z,2.63
2022-07-30T13:39:47.623Z,2.78
2022-07-30T13:42:20.797Z,2.65
2022-07-30T13:44:54.780Z,3.08
2022-07-30T13:47:29.667Z,2.55
2022-07-30T13:50:02.790Z,2.63
2022-07-30T13:52:36.411Z,2.90
2022-07-30T13:55:09.560Z,3.00
2022-07-30T13:57:45.036Z,2.53
2022-07-30T14:00:18.643Z,2.60
2022-07-30T14:02:53.166Z,2.90
2022-07-30T14:05:26.545Z,3.40
2022-07-30T14:07:59.544Z,2.75
2022-07-30T14:10:32.669Z,2.72
2022-07-30T14:13:06.680Z,3.20
2022-07-30T14:15:40.710Z,2.67
2022-07-30T14:18:15.253Z,4.70
2022-07-30T14:20:49.501Z,4.95
2022-07-30T14:23:22.592Z,2.47
2022-07-30T14:25:55.903Z,2.90
2022-07-30T14:28:29.070Z,3.25
2022-07-30T14:31:03.431Z,2.85
2022-07-30T14:33:37.763Z,3.00
2022-07-30T14:36:11.203Z,2.42
2022-07-30T14:38:44.491Z,2.60
2022-07-30T14:41:17.482Z,2.72
2022-07-30T14:43:50.430Z,2.30
2022-07-30T14:46:23.923Z,2.53
2022-07-30T14:48:58.482Z,4.13
2022-07-30T14:51:34.600Z,2.85
2022-07-30T14:54:08.090Z,2.78
2022-07-30T14:56:41.766Z,2.72
2022-07-30T14:59:14.990Z,2.55
2022-07-30T15:01:48.067Z,2.78
2022-07-30T15:04:22.566Z,2.67
2022-07-30T15:06:55.858Z,2.40
2022-07-30T15:09:28.825Z,2.45
2022-07-30T15:12:08.304Z,2.50
2022-07-30T15:14:42.782Z,3.10
2022-07-30T15:17:18.226Z,2.70
2022-07-30T15:19:52.483Z,2.70
2022-07-30T15:22:25.551Z,2.90
2022-07-30T15:25:00.732Z,4.57
2022-07-30T15:27:34.563Z,2.67
2022-07-30T15:30:08.167Z,2.42
2022-07-30T15:32:41.223Z,3.35
2022-07-30T15:35:19.047Z,2.60
2022-07-30T15:37:52.030Z,2.45
2022-07-30T15:40:25.414Z,2.40
2022-07-30T15:42:58.839Z,2.60
2022-07-30T15:45:51.193Z,2.90
2022-07-30T15:48:27.822Z,2.40
2022-07-30T15:51:04.413Z,2.58
2022-07-30T15:53:37.472Z,2.25
2022-07-30T15:56:10.767Z,2.13
2022-07-30T15:58:44.190Z,2.40
2022-07-30T16:01:17.664Z,2.15
2022-07-30T16:03:50.850Z,2.58
2022-07-30T16:06:25.317Z,2.30
2022-07-30T16:08:58.543Z,2.70
2022-07-30T16:11:32.463Z,3.08
2022-07-30T16:14:08.785Z,2.75
2022-07-30T16:16:43.781Z,2.40
2022-07-30T16:19:16.876Z,2.17
2022-07-30T16:21:51.064Z,2.67
2022-07-30T16:24:24.187Z,2.80
2022-07-30T16:26:57.255Z,2.85
2022-07-30T16:29:30.277Z,2.40
2022-07-30T16:32:03.538Z,3.65
2022-07-30T16:34:36.929Z,2.80
2022-07-30T16:37:11.556Z,2.75
2022-07-30T16:39:44.792Z,2.65
2022-07-30T16:42:17.715Z,2.40
2022-07-30T16:44:50.912Z,2.72
2022-07-30T16:47:23.889Z,2.75
2022-07-30T16:49:59.412Z,2.50
2022-07-30T16:52:33.617Z,2.15
2022-07-30T16:55:07.868Z,3.10
2022-07-30T16:57:40.792Z,2.47
2022-07-30T17:00:15.590Z,2.15
2022-07-30T17:02:48.526Z,2.50
2022-07-30T17:05:21.860Z,2.17
2022-07-30T17:07:56.875Z,2.50
2022-07-30T17:10:30.227Z,2.50
2022-07-30T17:13:03.460Z,7.03
2022-07-30T17:15:37.259Z,2.70
2022-07-30T17:18:10.424Z,2.63
2022-07-30T17:20:43.598Z,2.42
2022-07-30T17:23:18.133Z,2.30
2022-07-30T17:25:51.696Z,2.78
2022-07-30T17:28:27.170Z,3.30
2022-07-30T17:31:00.584Z,2.40
2022-07-30T17:33:33.623Z,2.72
2022-07-30T17:36:08.354Z,2.70
2022-07-30T17:38:42.761Z,2.75
2022-07-30T17:41:15.902Z,2.63
2022-07-30T17:43:48.920Z,2.70
2022-07-30T17:46:22.268Z,2.72
2022-07-30T17:48:55.397Z,2.78
2022-07-30T17:51:28.608Z,2.63
2022-07-30T17:54:03.423Z,2.78
2022-07-30T17:56:36.978Z,2.78
2022-07-30T17:59:13.705Z,2.63
2022-07-30T18:01:47.064Z,2.53
2022-07-30T18:04:20.034Z,2.50
2022-07-30T18:06:53.224Z,2.78
2022-07-30T18:09:27.924Z,2.85
2022-07-30T18:12:01.602Z,3.03
2022-07-30T18:14:34.836Z,3.20
2022-07-30T18:17:12.443Z,3.33
2022-07-30T18:19:47.202Z,3.92
2022-07-30T18:22:29.522Z,4.35
2022-07-30T18:25:07.574Z,5.18
2022-07-30T18:27:40.996Z,4.53
2022-07-30T18:30:14.665Z,4.82
2022-07-30T18:32:47.831Z,8.55
2022-07-30T18:35:20.838Z,8.73
2022-07-30T18:37:53.816Z,5.05
2022-07-30T18:40:28.166Z,7.00
2022-07-30T18:43:01.596Z,4.95
2022-07-30T18:45:37.148Z,4.40
2022-07-30T18:48:10.420Z,4.35
2022-07-30T18:50:43.261Z,5.25
2022-07-30T18:53:16.662Z,4.22
2022-07-30T18:55:50.902Z,3.72
2022-07-30T18:58:24.663Z,3.40
2022-07-30T19:00:57.591Z,3.60
2022-07-30T19:03:30.856Z,3.38
2022-07-30T19:06:03.912Z,3.70
2022-07-30T19:08:37.235Z,3.85
2022-07-30T19:11:11.683Z,3.63
2022-07-30T19:13:44.892Z,3.90
2022-07-30T19:16:18.220Z,3.17
2022-07-30T19:18:51.855Z,3.13
2022-07-30T19:21:25.002Z,3.70
2022-07-30T19:23:58.587Z,4.75
2022-07-30T19:26:33.228Z,3.95
2022-07-30T19:29:07.735Z,4.40
2022-07-30T19:31:41.665Z,3.13
2022-07-30T19:34:15.140Z,3.25
2022-07-30T19:36:48.410Z,3.10
2022-07-30T19:39:22.173Z,3.20
2022-07-30T19:41:56.657Z,2.58
2022-07-30T19:44:31.232Z,3.05
2022-07-30T19:47:04.855Z,2.47
2022-07-30T19:49:40.668Z,2.55
2022-07-30T19:52:23.422Z,2.75
2022-07-30T19:54:58.519Z,2.20
2022-07-30T19:57:53.159Z,2.55
2022-07-30T20:00:25.998Z,3.10
2022-07-30T20:02:59.216Z,3.00
2022-07-30T20:08:27.572Z,3.50
2022-07-30T20:11:01.583Z,2.83
2022-07-30T20:13:45.291Z,3.40
2022-07-30T20:16:19.166Z,4.20
2022-07-30T20:18:52.852Z,3.40
2022-07-30T20:21:54.265Z,4.28
2022-07-30T20:24:19.268Z,3.67
2022-07-30T20:26:53.959Z,3.42
2022-07-30T20:29:28.426Z,3.47
2022-07-30T20:32:03.245Z,3.42
2022-07-30T20:34:36.651Z,3.40
2022-07-30T20:37:14.949Z,3.50
2022-07-30T20:39:55.820Z,3.90
2022-07-30T20:42:29.142Z,3.83
2022-07-30T20:45:03.729Z,4.57
2022-07-30T20:47:38.891Z,3.70
2022-07-30T20:50:14.636Z,3.97
2022-07-30T20:52:48.170Z,4.43
2022-07-30T20:55:22.020Z,3.90
2022-07-30T20:57:58.732Z,4.00
2022-07-30T21:00:41.865Z,3.80
2022-07-30T21:03:16.242Z,3.92
2022-07-30T21:05:49.210Z,4.10
2022-07-30T21:08:25.910Z,5.68
2022-07-30T21:11:00.239Z,4.40
2022-07-30T21:13:33.473Z,4.78
2022-07-30T21:16:15.593Z,5.28
2022-07-30T21:21:47.973Z,5.78
2022-07-30T21:24:22.698Z,6.68
2022-07-30T21:26:55.723Z,7.78
2022-07-30T21:29:28.963Z,8.93
2022-07-30T21:32:03.604Z,9.60
2022-07-30T21:34:41.926Z,10.93
2022-07-30T21:37:36.427Z,10.55
2022-07-30T21:40:10.820Z,11.40
2022-07-30T21:42:48.789Z,11.20
2022-07-30T21:45:22.419Z,12.35
2022-07-30T21:48:01.360Z,12.02
2022-07-30T21:50:34.357Z,13.07
2022-07-30T21:53:07.373Z,13.10
2022-07-30T21:55:53.228Z,14.35
2022-07-30T21:58:26.665Z,15.70
2022-07-30T22:01:04.079Z,16.38
2022-07-30T22:04:03.922Z,16.50
2022-07-30T22:06:41.946Z,14.63
2022-07-30T22:09:18.654Z,15.77
2022-07-30T22:11:57.340Z,16.23
2022-07-30T22:14:35.203Z,15.02
2022-07-30T22:17:22.463Z,13.55
2022-07-30T22:19:58.484Z,13.85
2022-07-30T22:22:36.186Z,14.00
2022-07-30T22:25:11.727Z,13.60
2022-07-30T22:27:55.779Z,13.93
2022-07-30T22:30:30.675Z,13.98
2022-07-30T22:33:15.043Z,12.52
2022-07-30T22:35:50.281Z,11.48
2022-07-30T22:38:23.804Z,11.88
2022-07-30T22:40:57.258Z,12.15
2022-07-30T22:43:33.072Z,9.95
2022-07-30T22:46:14.758Z,11.38
2022-07-30T22:49:01.772Z,11.15
2022-07-30T22:52:03.584Z,9.68
2022-07-30T22:54:29.463Z,10.73
2022-07-30T22:57:03.968Z,11.23
2022-07-30T22:59:58.648Z,10.63
2022-07-30T23:02:30.602Z,11.18
2022-07-30T23:05:04.564Z,11.38
2022-07-30T23:07:40.324Z,13.68
2022-07-30T23:10:18.654Z,13.43
2022-07-30T23:12:17.197Z,2.95
2022-07-30T23:12:27.126Z,5.22
2022-07-30T23:12:53.925Z,13.25
2022-07-30T23:15:26.978Z,14.60
2022-07-30T23:17:59.970Z,16.05
2022-07-30T23:20:33.715Z,16.30
2022-07-30T23:23:08.241Z,15.13
2022-07-30T23:25:41.164Z,15.48
2022-07-30T23:28:14.196Z,13.52
2022-07-30T23:30:47.222Z,13.15
2022-07-30T23:33:20.617Z,12.93
2022-07-30T23:35:53.691Z,12.50
2022-07-30T23:38:28.776Z,12.70
2022-07-30T23:41:04.129Z,12.20
2022-07-30T23:43:38.380Z,11.07
2022-07-30T23:46:11.378Z,11.30
2022-07-30T23:48:44.463Z,10.45
2022-07-30T23:51:17.428Z,10.98
2022-07-30T23:53:52.112Z,11.20
2022-07-30T23:56:27.037Z,9.80
2022-07-30T23:59:00.050Z,11.05
